Fu Ning Wan — VRDN9 — position and weather

sailwx.info

Track history (hours):
 
Tides and Currents Weather Stations Pressure Air Temp Water Temp Dewpoint Dewpoint Depression Visibility Wind Speed Wind Dir Waves Ship Positions

Fu Ning Wan

Last reported at 2015-Mar-23 18:33 UTC. Time now 2015-Mar-27 11:58 UTC.
Position N 31°01' E 122°21'.

Length 107 m; draft 6.8 m.

Type: Tanker. MMSI: 477003600.

Date/timePositionNaut miles runAvg speedWind from/ knotsBaromVisibWave heightAir tempDewpointWater temp
2015-Mar-23 18:33N 31°01' E 122°21'10 9.9
2015-Mar-23 17:33N 31°03' E 122°10'8 8.3
2015-Mar-23 16:33N 31°05' E 122°01'7 7.5
2015-Mar-23 15:33N 31°09' E 121°53'1111.5
2015-Mar-23 14:33N 31°17' E 121°44'1212.0
2015-Mar-23 13:33N 31°24' E 121°33'1111.5
2015-Mar-23 12:33N 31°31' E 121°22'1313.3
2015-Mar-23 11:33N 31°41' E 121°11'1711.7
2015-Mar-23 10:04N 31°50' E 120°54'610.6
2015-Mar-23 09:33N 31°56' E 120°52'9 8.9
2015-Mar-23 08:33N 32°00' E 120°43'8 8.3
2015-Mar-23 07:33N 32°02' E 120°34'10 9.9
2015-Mar-23 06:33N 32°01' E 120°23'1312.8
2015-Mar-23 05:33N 31°56' E 120°08'1312.5
2015-Mar-23 04:31N 32°03' E 119°56'23 7.5
2015-Mar-23 01:29N 32°14' E 119°32'18 8.8
2015-Mar-22 23:26N 32°14' E 119°11'0 0.4
2015-Mar-22 22:32N 32°14' E 119°11'  
Track history (hours):
 
Tides and Currents Weather Stations Pressure Air Temp Water Temp Dewpoint Dewpoint Depression Visibility Wind Speed Wind Dir Waves Ship Positions

Fu Ning Wan

Last reported at 2015-Mar-23 18:33 UTC. Time now 2015-Mar-27 11:58 UTC.
Position N 31°01' E 122°21'.

Length 107 m; draft 6.8 m.

Type: Tanker. MMSI: 477003600.

Date/timePositionNaut miles runAvg speedWind from/ knotsBaromVisibWave heightAir tempDewpointWater temp
2015-Mar-23 18:33N 31°01' E 122°21'10 9.9
2015-Mar-23 17:33N 31°03' E 122°10'8 8.3
2015-Mar-23 16:33N 31°05' E 122°01'7 7.5
2015-Mar-23 15:33N 31°09' E 121°53'1111.5
2015-Mar-23 14:33N 31°17' E 121°44'1212.0
2015-Mar-23 13:33N 31°24' E 121°33'1111.5
2015-Mar-23 12:33N 31°31' E 121°22'1313.3
2015-Mar-23 11:33N 31°41' E 121°11'1711.7
2015-Mar-23 10:04N 31°50' E 120°54'610.6
2015-Mar-23 09:33N 31°56' E 120°52'9 8.9
2015-Mar-23 08:33N 32°00' E 120°43'8 8.3
2015-Mar-23 07:33N 32°02' E 120°34'10 9.9
2015-Mar-23 06:33N 32°01' E 120°23'1312.8
2015-Mar-23 05:33N 31°56' E 120°08'1312.5
2015-Mar-23 04:31N 32°03' E 119°56'23 7.5
2015-Mar-23 01:29N 32°14' E 119°32'18 8.8
2015-Mar-22 23:26N 32°14' E 119°11'0 0.4
2015-Mar-22 22:32N 32°14' E 119°11'  

Dump ship's entire track history